Time;durP1;ratioP1;P1;durP2;ratioP2;P2;SDS_P1;SDS_P2;PMS_P1;PMS_P2;Temp;Humidity;BMP_temperature;BMP_pressure;BME280_temperature;BME280_humidity;BME280_pressure;Samples;Min_cycle;Max_cycle;Signal;HPM_P1;HPM_P2
2022/02/03 00:00:01;;;;;;;152.35;91.95;;;;;;;2.70;79.40;100098.05;1755756;81;21122;-75
2022/02/03 00:05:20;;;;;;;153.57;90.17;;;;;;;2.72;79.56;100104.47;1758087;81;20904;-75
2022/02/03 00:08:00;;;;;;;156.85;94.22;;;;;;;2.70;79.61;100096.75;1757672;81;21050;-76
2022/02/03 00:24:37;;;;;;;116.93;68.72;;;;;;;2.53;79.50;100078.38;1757932;81;21576;-75
2022/02/03 00:27:15;;;;;;;136.37;77.53;;;;;;;2.46;79.65;100078.59;1757647;81;21519;-75
2022/02/03 00:29:58;;;;;;;157.30;86.90;;;;;;;2.43;79.75;100084.34;1756950;80;20939;-76
2022/02/03 00:32:48;;;;;;;157.43;88.82;;;;;;;2.39;79.96;100082.76;1757927;81;21331;-75
2022/02/03 00:48:45;;;;;;;165.22;92.72;;;;;;;2.46;80.09;100073.88;1758157;81;20884;-73
2022/02/03 00:51:11;;;;;;;162.45;97.75;;;;;;;2.49;79.87;100077.21;1758048;81;21342;-73
2022/02/03 00:53:39;;;;;;;169.43;99.10;;;;;;;2.48;79.64;100075.51;1759323;81;21409;-73
2022/02/03 00:56:12;;;;;;;170.82;97.12;;;;;;;2.45;79.49;100076.08;1757803;81;20951;-74
2022/02/03 00:59:06;;;;;;;164.67;94.00;;;;;;;2.41;79.29;100075.79;1757963;81;21382;-73
2022/02/03 01:01:38;;;;;;;167.57;96.28;;;;;;;2.35;79.05;100070.37;1722301;81;20928;-74
2022/02/03 01:04:08;;;;;;;158.35;95.55;;;;;;;2.26;79.10;100074.11;1758289;81;20978;-75
2022/02/03 01:06:38;;;;;;;155.10;93.15;;;;;;;2.20;79.16;100076.06;1757825;81;21142;-74
2022/02/03 01:09:06;;;;;;;154.15;88.20;;;;;;;2.16;79.26;100070.63;1757614;80;20944;-75
2022/02/03 01:11:38;;;;;;;161.03;96.15;;;;;;;2.10;79.33;100074.26;1757841;80;21374;-74
2022/02/03 01:14:10;;;;;;;149.25;92.00;;;;;;;2.05;79.64;100070.99;1757339;81;21399;-74
2022/02/03 01:19:32;;;;;;;145.28;83.07;;;;;;;2.12;79.89;100065.16;1757775;80;21551;-75
2022/02/03 01:36:56;;;;;;;149.30;81.82;;;;;;;1.90;80.19;100083.97;1757811;80;20884;-74
2022/02/03 01:43:41;;;;;;;142.57;82.05;;;;;;;1.96;80.54;100076.02;1757874;81;21311;-73
2022/02/03 01:46:16;;;;;;;138.62;77.80;;;;;;;1.94;80.38;100073.09;1757375;80;21145;-75
2022/02/03 01:49:03;;;;;;;111.57;66.35;;;;;;;1.91;80.39;100075.30;1757123;81;20916;-75
2022/02/03 01:53:57;;;;;;;69.45;46.50;;;;;;;1.89;80.50;100074.54;1757751;81;21011;-74
2022/02/03 01:56:42;;;;;;;66.85;46.80;;;;;;;1.81;80.60;100070.90;1757900;81;20991;-74
2022/02/03 01:59:21;;;;;;;72.42;47.55;;;;;;;1.75;80.88;100071.55;1756862;81;21154;-73
2022/02/03 02:01:59;;;;;;;72.92;51.48;;;;;;;1.72;81.12;100068.62;1757890;81;20920;-73
2022/02/03 02:04:53;;;;;;;66.45;46.92;;;;;;;1.68;81.21;100068.31;1758161;81;21350;-75
2022/02/03 02:07:40;;;;;;;73.40;48.87;;;;;;;1.65;81.31;100070.55;1758011;80;21366;-75
2022/02/03 02:11:25;;;;;;;96.53;62.13;;;;;;;1.63;81.50;100066.34;1757643;81;20920;-74
2022/02/03 02:13:25;;;;;;;115.28;66.87;;;;;;;1.62;81.68;100078.84;1728192;81;20952;-73
2022/02/03 02:16:06;;;;;;;91.10;57.05;;;;;;;1.69;82.20;100078.20;1756317;81;20924;-74
2022/02/03 02:18:48;;;;;;;85.45;56.95;;;;;;;1.76;82.40;100075.38;1758580;81;20880;-73
2022/02/03 02:43:38;;;;;;;108.32;64.17;;;;;;;2.15;80.74;100063.75;1744341;81;20941;-75
2022/02/03 02:46:24;;;;;;;103.72;63.05;;;;;;;2.11;80.70;100058.28;1744699;82;20897;-74
2022/02/03 02:49:10;;;;;;;90.35;55.88;;;;;;;2.07;80.76;100055.81;1744973;80;21015;-70
2022/02/03 02:51:39;;;;;;;92.75;58.73;;;;;;;2.05;80.58;100054.18;1746416;82;20885;-73
2022/02/03 03:36:00;;;;;;;83.25;52.40;;;;;;;1.89;81.21;100099.52;1744576;82;22180;-73
2022/02/03 03:38:29;;;;;;;94.80;55.95;;;;;;;1.93;81.54;100110.17;1744371;81;20893;-74
2022/02/03 03:40:57;;;;;;;86.15;52.08;;;;;;;1.99;81.64;100113.40;1744615;81;20988;-74
2022/02/03 03:43:39;;;;;;;96.55;55.15;;;;;;;2.04;81.46;100118.42;1744547;80;20928;-73
2022/02/03 03:46:26;;;;;;;93.47;53.33;;;;;;;2.07;81.50;100110.12;1744674;80;20996;-74
2022/02/03 03:49:15;;;;;;;90.87;51.83;;;;;;;2.07;81.15;100113.16;1744600;81;21018;-73
2022/02/03 03:51:51;;;;;;;78.42;46.20;;;;;;;2.04;81.10;100109.37;1733937;82;20869;-72
2022/02/03 03:54:31;;;;;;;82.08;44.25;;;;;;;2.03;81.23;100112.86;1744725;81;20885;-72
2022/02/03 03:57:07;;;;;;;84.80;46.18;;;;;;;2.02;81.35;100108.14;1743418;81;20976;-75
2022/02/03 04:40:05;;;;;;;83.47;47.83;;;;;;;2.09;81.01;100156.63;1730524;81;20999;-74
2022/02/03 04:55:49;;;;;;;82.67;50.15;;;;;;;2.07;81.40;100171.35;1744404;82;20948;-74
2022/02/03 04:59:02;;;;;;;84.85;51.95;;;;;;;2.11;81.43;100179.84;1743208;81;21366;-76
2022/02/03 05:01:25;;;;;;;80.30;47.53;;;;;;;2.10;81.02;100175.58;1737972;81;21196;-75
2022/02/03 05:04:46;;;;;;;80.60;49.10;;;;;;;2.07;80.83;100179.95;1743350;81;21054;-75
2022/02/03 05:07:52;;;;;;;86.25;48.20;;;;;;;2.03;80.77;100169.30;1743884;81;20932;-76
2022/02/03 05:10:44;;;;;;;93.55;50.33;;;;;;;1.97;80.81;100167.36;1743977;81;20897;-76
2022/02/03 05:15:07;;;;;;;86.20;49.75;;;;;;;1.92;81.11;100171.38;1743796;80;21746;-75
2022/02/03 05:46:36;;;;;;;89.77;49.75;;;;;;;2.14;81.29;100206.46;1758082;80;20884;-75
2022/02/03 05:52:01;;;;;;;78.25;46.20;;;;;;;2.16;80.98;100218.06;1757750;81;21014;-74
2022/02/03 06:05:21;;;;;;;73.97;42.75;;;;;;;2.03;80.72;100222.31;1758288;80;20940;-74
2022/02/03 06:07:49;;;;;;;78.95;44.88;;;;;;;2.02;80.88;100234.86;1756209;81;20932;-75
2022/02/03 06:16:04;;;;;;;70.42;41.40;;;;;;;2.12;80.91;100224.23;1727981;83;20940;-74
2022/02/03 06:21:48;;;;;;;68.00;39.70;;;;;;;2.12;80.56;100225.52;1728068;81;20944;-73
2022/02/03 06:23:27;;;;;;;59.88;36.63;;;;;;;2.08;80.68;100223.01;1694454;83;20940;-75
2022/02/03 06:28:43;;;;;;;62.33;35.98;;;;;;;2.07;81.44;100214.03;1727872;83;20971;-73
2022/02/03 06:31:05;;;;;;;58.15;35.73;;;;;;;2.08;81.51;100215.25;1727443;82;20903;-73
2022/02/03 06:33:32;;;;;;;57.65;33.88;;;;;;;2.13;82.23;100214.27;1728947;83;20909;-72
2022/02/03 06:35:59;;;;;;;56.45;34.30;;;;;;;2.22;82.51;100207.50;1729218;82;20935;-72
2022/02/03 06:38:26;;;;;;;60.83;37.30;;;;;;;2.28;82.35;100215.91;1711460;83;22139;-72
2022/02/03 06:40:53;;;;;;;54.42;32.35;;;;;;;2.31;81.99;100216.70;1727780;83;21418;-73
2022/02/03 06:43:20;;;;;;;56.80;35.85;;;;;;;2.30;81.84;100221.50;1727819;81;20901;-74
2022/02/03 06:45:57;;;;;;;54.80;33.20;;;;;;;2.30;81.78;100219.75;1728206;82;20919;-73
2022/02/03 06:48:18;;;;;;;57.27;34.88;;;;;;;2.31;82.00;100227.05;1726645;81;21049;-72
2022/02/03 06:50:52;;;;;;;59.83;34.08;;;;;;;2.36;82.24;100227.31;1727704;81;21477;-72
2022/02/03 06:53:21;;;;;;;55.52;33.42;;;;;;;2.40;81.75;100227.63;1727474;82;21444;-73
2022/02/03 06:55:57;;;;;;;55.52;33.05;;;;;;;2.39;81.32;100225.08;1727754;83;21405;-72
2022/02/03 07:00:59;;;;;;;49.58;32.13;;;;;;;2.39;81.15;100241.44;1727847;83;20944;-72
2022/02/03 07:03:21;;;;;;;57.53;34.70;;;;;;;2.41;80.88;100234.93;1726798;82;21216;-72
2022/02/03 07:05:46;;;;;;;57.95;32.90;;;;;;;2.38;80.90;100238.89;1727480;81;20947;-72
2022/02/03 07:08:18;;;;;;;50.03;32.75;;;;;;;2.40;80.92;100239.69;1727728;83;21074;-72
2022/02/03 07:10:45;;;;;;;103.15;35.43;;;;;;;2.40;80.67;100243.14;1727914;81;20892;-73
2022/02/03 07:13:15;;;;;;;53.42;31.80;;;;;;;2.39;80.54;100245.77;1727711;81;20943;-73
2022/02/03 07:15:41;;;;;;;59.15;33.53;;;;;;;2.37;80.45;100244.52;1727750;83;21182;-72
2022/02/03 07:18:08;;;;;;;50.35;31.17;;;;;;;2.34;80.45;100245.09;1727604;83;21433;-72
2022/02/03 07:20:36;;;;;;;51.90;32.00;;;;;;;2.32;80.56;100237.82;1727770;83;21059;-73
2022/02/03 07:23:03;;;;;;;50.60;30.08;;;;;;;2.33;80.77;100231.73;1727660;83;20900;-74
2022/02/03 07:25:31;;;;;;;57.05;32.65;;;;;;;2.36;80.80;100236.38;1728025;81;20892;-72
2022/02/03 07:27:57;;;;;;;48.30;30.20;;;;;;;2.40;80.83;100237.97;1727782;83;21138;-73
2022/02/03 07:30:25;;;;;;;46.40;29.77;;;;;;;2.46;80.90;100235.61;1728073;82;20949;-73
2022/02/03 07:32:55;;;;;;;50.15;29.52;;;;;;;2.52;80.91;100238.47;1728088;82;21435;-72
2022/02/03 07:35:20;;;;;;;41.90;26.60;;;;;;;2.57;80.76;100232.22;1727679;81;20940;-74
2022/02/03 07:37:48;;;;;;;54.33;29.52;;;;;;;2.61;80.80;100245.92;1727952;81;21492;-73
2022/02/03 07:40:16;;;;;;;44.40;26.17;;;;;;;2.63;80.50;100248.85;1722504;82;21491;-74
2022/02/03 07:42:48;;;;;;;48.35;28.15;;;;;;;2.63;80.44;100249.30;1715655;83;20936;-73
2022/02/03 07:45:15;;;;;;;43.15;26.48;;;;;;;2.65;80.50;100248.81;1715053;82;20896;-73
2022/02/03 07:47:44;;;;;;;36.40;23.42;;;;;;;2.69;80.55;100257.72;1714801;83;21439;-73
2022/02/03 07:50:11;;;;;;;36.20;23.92;;;;;;;2.74;80.39;100256.27;1714964;82;20904;-73
2022/02/03 07:52:38;;;;;;;34.53;23.22;;;;;;;2.73;80.20;100261.48;1714914;83;21407;-72
2022/02/03 07:55:06;;;;;;;35.75;24.12;;;;;;;2.70;80.15;100254.22;1714774;83;20893;-78
2022/02/03 07:57:34;;;;;;;33.05;20.95;;;;;;;2.72;80.29;100256.77;1715128;83;21363;-73
2022/02/03 08:00:03;;;;;;;36.85;22.70;;;;;;;2.79;80.60;100248.34;1714731;83;20893;-74
2022/02/03 08:02:32;;;;;;;41.58;24.98;;;;;;;2.88;80.57;100254.50;1714251;82;20877;-76
2022/02/03 08:05:03;;;;;;;40.83;25.25;;;;;;;2.92;80.33;100256.09;1714895;82;21423;-75
2022/02/03 08:07:28;;;;;;;42.62;27.42;;;;;;;2.96;80.16;100258.10;1714622;83;20956;-74
2022/02/03 08:10:03;;;;;;;42.27;24.25;;;;;;;3.00;80.02;100249.34;1714743;82;20913;-77
2022/02/03 08:12:31;;;;;;;47.17;30.27;;;;;;;3.02;79.74;100247.54;1714549;82;20960;-76
2022/02/03 08:14:57;;;;;;;53.95;34.03;;;;;;;2.96;79.28;100256.81;1714721;82;21327;-76
2022/02/03 08:17:32;;;;;;;57.65;35.48;;;;;;;2.90;79.46;100263.90;1714918;83;21188;-75
2022/02/03 08:19:57;;;;;;;56.63;33.85;;;;;;;2.87;79.52;100261.42;1714333;82;20889;-76
2022/02/03 08:23:12;;;;;;;56.55;33.63;;;;;;;2.85;79.65;100269.70;1714761;82;20897;-75
2022/02/03 08:25:11;;;;;;;53.45;32.38;;;;;;;2.86;79.74;100264.89;1709468;83;28064;-75
2022/02/03 08:28:03;;;;;;;53.83;32.83;;;;;;;2.88;79.88;100259.22;1714528;82;20999;-76
2022/02/03 08:32:53;;;;;;;46.15;28.70;;;;;;;3.00;79.99;100273.94;1714702;82;20952;-76
2022/02/03 08:38:02;;;;;;;41.15;25.30;;;;;;;3.10;79.67;100259.33;1715000;82;20894;-81
2022/02/03 08:40:32;;;;;;;44.48;29.02;;;;;;;3.14;79.76;100259.23;1704297;82;21026;-81
2022/02/03 08:42:57;;;;;;;42.75;26.93;;;;;;;3.16;79.62;100261.30;1686620;85;21122;-86
2022/02/03 08:45:24;;;;;;;47.40;27.52;;;;;;;3.14;79.21;100267.02;1652522;85;20884;-80
2022/02/03 08:47:51;;;;;;;49.70;28.83;;;;;;;3.11;79.24;100270.53;1653163;85;20971;-78
2022/02/03 08:50:18;;;;;;;49.30;29.02;;;;;;;3.10;79.41;100275.33;1647282;87;21011;-79
2022/02/03 08:53:09;;;;;;;43.45;28.52;;;;;;;3.08;79.52;100270.19;1653311;85;20903;-81
2022/02/03 08:55:33;;;;;;;51.83;30.90;;;;;;;3.11;79.59;100270.53;1646387;86;21215;-81
2022/02/03 09:36:11;;;;;;;58.52;33.15;;;;;;;3.15;80.03;100260.45;1645802;85;21168;-76
2022/02/03 09:38:39;;;;;;;60.58;34.38;;;;;;;3.19;79.96;100268.98;1642100;87;21054;-74
2022/02/03 09:52:13;;;;;;;57.95;32.65;;;;;;;3.31;79.22;100275.88;1668122;85;21047;-75
2022/02/03 09:58:23;;;;;;;55.58;33.38;;;;;;;3.29;79.24;100283.28;1759305;81;20860;-75
2022/02/03 10:03:37;;;;;;;56.60;36.50;;;;;;;3.32;79.53;100276.27;1758289;80;21421;-78
2022/02/03 10:06:07;;;;;;;59.67;34.40;;;;;;;3.34;79.53;100277.97;1757747;80;20990;-76
2022/02/03 10:08:29;;;;;;;56.55;36.05;;;;;;;3.35;79.61;100264.94;1757539;80;20915;-74
2022/02/03 10:11:17;;;;;;;60.30;34.10;;;;;;;3.38;79.62;100259.66;1758520;80;20893;-75
2022/02/03 10:13:53;;;;;;;61.63;36.13;;;;;;;3.42;79.57;100264.27;1758324;80;21136;-75
2022/02/03 10:16:34;;;;;;;58.15;36.40;;;;;;;3.39;79.47;100261.34;1758400;80;21365;-75
2022/02/03 10:19:17;;;;;;;59.05;36.90;;;;;;;3.33;79.36;100255.07;1758179;80;20912;-76
2022/02/03 10:21:43;;;;;;;56.53;34.85;;;;;;;3.35;79.52;100257.61;1758514;80;21564;-77
2022/02/03 10:24:17;;;;;;;64.85;38.92;;;;;;;3.32;79.36;100256.83;1758592;81;20861;-77
2022/02/03 10:26:45;;;;;;;62.30;35.10;;;;;;;3.33;79.36;100260.25;1756829;80;21124;-75
2022/02/03 10:29:20;;;;;;;61.35;38.00;;;;;;;3.32;79.40;100255.98;1757778;80;20923;-72
2022/02/03 10:31:55;;;;;;;63.13;36.17;;;;;;;3.31;79.50;100253.85;1752576;81;20920;-76
2022/02/03 10:34:29;;;;;;;60.25;37.10;;;;;;;3.35;79.57;100253.73;1756413;80;21359;-76
2022/02/03 10:37:09;;;;;;;60.67;34.00;;;;;;;3.38;79.55;100258.79;1757816;80;21007;-77
2022/02/03 10:40:20;;;;;;;56.50;32.23;;;;;;;3.40;79.47;100261.75;1757412;80;22036;-76
2022/02/03 10:45:35;;;;;;;62.55;36.15;;;;;;;3.37;79.44;100262.30;1758238;80;20880;-76
2022/02/03 10:50:55;;;;;;;66.87;39.67;;;;;;;3.52;79.75;100273.41;1758181;80;20947;-75
2022/02/03 11:01:33;;;;;;;66.07;36.73;;;;;;;3.73;79.00;100258.36;1718957;83;20963;-75
2022/02/03 11:06:25;;;;;;;66.05;34.98;;;;;;;3.71;78.82;100251.09;1719639;83;21141;-78
2022/02/03 11:11:32;;;;;;;58.65;35.95;;;;;;;3.72;78.70;100250.63;1718664;83;20900;-79
2022/02/03 11:13:51;;;;;;;64.87;34.92;;;;;;;3.68;78.71;100257.67;1716965;82;21421;-77
2022/02/03 11:16:18;;;;;;;55.98;31.15;;;;;;;3.69;78.82;100262.39;1718465;83;20975;-80
2022/02/03 11:18:47;;;;;;;58.70;35.68;;;;;;;3.72;78.87;100258.41;1718473;83;21109;-82
2022/02/03 11:21:14;;;;;;;60.25;32.65;;;;;;;3.73;78.79;100263.98;1718587;82;20935;-78
2022/02/03 11:23:47;;;;;;;58.73;34.13;;;;;;;3.69;78.67;100263.69;1718919;83;21536;-78
2022/02/03 11:26:22;;;;;;;60.70;35.13;;;;;;;3.62;78.72;100261.78;1717840;83;20872;-77
2022/02/03 11:59:06;;;;;;;60.83;34.18;;;;;;;3.82;78.64;100256.30;1691421;83;21158;-77
2022/02/03 12:20:55;;;;;;;50.78;29.75;;;;;;;3.77;78.68;100277.69;1691333;83;20987;-75
2022/02/03 12:23:59;;;;;;;55.50;32.17;;;;;;;3.81;78.58;100284.45;1690709;83;20963;-73
2022/02/03 12:26:32;;;;;;;50.75;30.40;;;;;;;3.84;78.56;100283.03;1691280;83;21181;-76
2022/02/03 12:28:58;;;;;;;59.27;32.58;;;;;;;3.86;78.34;100286.41;1690024;83;20994;-74
2022/02/03 12:40:05;;;;;;;58.48;30.43;;;;;;;3.67;78.28;100301.83;1691404;83;21170;-77
2022/02/03 12:42:23;;;;;;;65.28;33.33;;;;;;;3.63;78.47;100301.08;1678562;83;20899;-75
2022/02/03 12:44:50;;;;;;;49.83;26.17;;;;;;;3.63;78.60;100306.27;1691148;83;20958;-79
2022/02/03 12:47:17;;;;;;;54.70;29.45;;;;;;;3.61;78.59;100311.12;1691520;83;21444;-79
2022/02/03 12:49:45;;;;;;;59.48;28.17;;;;;;;3.50;78.64;100316.23;1691428;84;20880;-77
2022/02/03 12:52:21;;;;;;;63.40;30.72;;;;;;;3.45;78.98;100313.42;1691350;83;21181;-75
2022/02/03 12:54:48;;;;;;;50.48;25.72;;;;;;;3.38;79.01;100311.50;1692887;83;21025;-74
2022/02/03 12:57:28;;;;;;;63.78;31.17;;;;;;;3.35;79.34;100317.22;1695680;84;21916;-78
2022/02/03 13:00:13;;;;;;;69.00;31.93;;;;;;;3.32;79.53;100320.31;1695333;84;21047;-75
2022/02/03 13:02:37;;;;;;;73.85;35.68;;;;;;;3.27;79.64;100318.34;1708336;83;20964;-75
2022/02/03 13:05:05;;;;;;;87.72;40.28;;;;;;;3.23;79.66;100324.53;1708210;83;21156;-76
2022/02/03 13:07:32;;;;;;;87.33;40.15;;;;;;;3.18;79.75;100317.38;1708442;83;20866;-77
2022/02/03 13:10:08;;;;;;;93.05;44.23;;;;;;;3.13;79.73;100331.36;1708761;83;20953;-74
2022/02/03 13:12:43;;;;;;;96.37;43.80;;;;;;;3.05;79.85;100322.57;1708631;83;21007;-75
2022/02/03 13:15:07;;;;;;;90.67;45.95;;;;;;;2.96;80.15;100326.73;1707449;83;20881;-75
2022/02/03 13:17:39;;;;;;;75.72;37.48;;;;;;;2.92;80.29;100329.90;1708791;83;21860;-77
2022/02/03 13:20:15;;;;;;;75.37;35.25;;;;;;;2.89;80.54;100323.51;1708394;83;20921;-76
2022/02/03 13:22:57;;;;;;;65.70;36.03;;;;;;;2.87;80.58;100323.58;1708666;83;20993;-76
2022/02/03 13:25:27;;;;;;;67.87;36.30;;;;;;;2.86;80.76;100332.69;1707448;84;20972;-78
2022/02/03 13:28:04;;;;;;;67.00;35.95;;;;;;;2.84;80.75;100327.55;1707355;83;20952;-77
2022/02/03 13:30:47;;;;;;;70.87;37.85;;;;;;;2.79;80.64;100324.27;1707623;83;21161;-74
2022/02/03 13:33:17;;;;;;;69.67;36.65;;;;;;;2.73;80.72;100321.03;1708143;83;20917;-78
2022/02/03 13:35:55;;;;;;;72.08;35.98;;;;;;;2.67;80.98;100316.91;1708444;84;20912;-76
2022/02/03 13:38:42;;;;;;;76.70;38.45;;;;;;;2.67;81.02;100323.39;1707870;84;20960;-79
2022/02/03 13:41:24;;;;;;;72.53;36.53;;;;;;;2.66;80.95;100319.92;1707933;83;20936;-79
2022/02/03 13:43:44;;;;;;;70.65;34.18;;;;;;;2.50;81.13;100298.03;1679102;83;21160;-77
2022/02/03 13:46:13;;;;;;;64.47;32.70;;;;;;;2.70;81.45;100321.98;1708501;83;21044;-75
2022/02/03 13:48:40;;;;;;;56.45;30.48;;;;;;;2.73;81.57;100315.86;1680529;84;20941;-76
2022/02/03 13:51:10;;;;;;;53.23;30.27;;;;;;;2.74;81.57;100318.41;1708383;83;21419;-76
2022/02/03 13:53:50;;;;;;;51.90;28.73;;;;;;;2.74;81.49;100317.11;1708363;83;20948;-78
2022/02/03 14:16:17;;;;;;;61.73;32.95;;;;;;;2.70;81.77;100335.77;1714294;83;21013;-73
2022/02/03 14:18:48;;;;;;;55.50;29.30;;;;;;;2.74;81.62;100338.28;1711181;83;20988;-76
2022/02/03 14:21:06;;;;;;;43.87;25.17;;;;;;;2.74;81.36;100331.34;1711487;83;20897;-77
2022/02/03 14:29:11;;;;;;;40.25;22.45;;;;;;;2.70;81.21;100340.11;1715402;83;20967;-83
2022/02/03 14:31:36;;;;;;;39.27;21.12;;;;;;;2.67;80.87;100342.80;1714009;83;20995;-75
2022/02/03 14:34:08;;;;;;;40.43;23.35;;;;;;;2.63;80.86;100345.92;1714003;83;21347;-76
2022/02/03 14:36:33;;;;;;;46.28;25.70;;;;;;;2.58;80.96;100347.82;1713920;83;21771;-77
2022/02/03 14:39:16;;;;;;;44.77;22.95;;;;;;;2.58;81.21;100348.25;1713911;83;20937;-77
2022/02/03 14:41:35;;;;;;;47.53;24.43;;;;;;;2.60;81.22;100351.21;1707663;83;21007;-77
2022/02/03 14:44:00;;;;;;;43.48;25.92;;;;;;;2.58;81.19;100359.89;1713658;83;21008;-74
2022/02/03 14:46:27;;;;;;;45.67;25.62;;;;;;;2.56;80.98;100362.55;1714217;83;21085;-76
2022/02/03 14:48:57;;;;;;;51.75;28.92;;;;;;;2.51;80.82;100359.23;1714096;83;21118;-77
2022/02/03 14:51:29;;;;;;;46.40;25.75;;;;;;;2.42;80.73;100358.23;1714162;83;20904;-79
2022/02/03 14:58:00;;;;;;;48.90;27.48;;;;;;;2.37;80.88;100362.25;1687155;83;21055;-79
2022/02/03 14:59:11;;;;;;;46.58;24.70;;;;;;;2.37;80.95;100360.96;1708597;83;20948;-77
2022/02/03 15:01:39;;;;;;;47.20;25.85;;;;;;;2.33;80.81;100368.41;1708748;83;21115;-77
2022/02/03 15:04:13;;;;;;;55.23;27.22;;;;;;;2.28;81.01;100369.00;1708613;83;21518;-77
2022/02/03 15:06:45;;;;;;;54.45;26.52;;;;;;;2.24;81.08;100370.83;1708583;83;20969;-78
2022/02/03 15:09:18;;;;;;;54.00;27.22;;;;;;;2.26;81.59;100375.96;1707487;83;20957;-79
2022/02/03 15:14:17;;;;;;;53.35;26.90;;;;;;;2.38;81.58;100369.14;1708466;83;21474;-78
2022/02/03 15:16:44;;;;;;;53.35;27.50;;;;;;;2.43;81.31;100380.64;1708929;83;20901;-77
2022/02/03 15:19:12;;;;;;;51.33;27.13;;;;;;;2.45;81.12;100383.58;1708516;83;20893;-78
2022/02/03 15:21:40;;;;;;;54.00;26.97;;;;;;;2.47;81.23;100382.25;1708757;84;21494;-79
2022/02/03 15:24:09;;;;;;;52.93;26.57;;;;;;;2.53;81.27;100380.75;1708586;83;20984;-79
2022/02/03 15:26:39;;;;;;;54.05;27.45;;;;;;;2.53;80.90;100385.92;1708422;83;21139;-81
2022/02/03 15:29:06;;;;;;;53.58;28.17;;;;;;;2.48;80.82;100392.53;1708662;83;20984;-77
2022/02/03 15:31:33;;;;;;;47.95;25.92;;;;;;;2.43;80.71;100387.11;1708516;83;20936;-80
2022/02/03 15:34:16;;;;;;;50.40;26.15;;;;;;;2.38;80.64;100386.38;1708840;84;21490;-78
2022/02/03 15:36:40;;;;;;;53.02;26.75;;;;;;;2.31;80.60;100387.02;1709161;83;20952;-78
2022/02/03 15:39:09;;;;;;;49.77;28.07;;;;;;;2.26;80.76;100394.91;1708508;83;21137;-76
2022/02/03 15:41:35;;;;;;;49.00;23.52;;;;;;;2.25;80.61;100398.86;1708603;84;20885;-77
2022/02/03 15:44:03;;;;;;;51.55;25.92;;;;;;;2.19;80.68;100394.70;1708335;83;20913;-81
2022/02/03 15:46:34;;;;;;;55.00;27.15;;;;;;;2.12;80.78;100394.94;1708393;83;21446;-78
2022/02/03 15:49:11;;;;;;;55.75;28.23;;;;;;;2.08;81.23;100401.92;1708581;83;20944;-78
2022/02/03 15:57:02;;;;;;;67.50;31.27;;;;;;;2.16;81.25;100402.56;1713022;83;20893;-75
2022/02/03 16:18:34;;;;;;;55.45;27.40;;;;;;;1.99;81.91;100422.88;1714223;83;21150;-77
2022/02/03 16:21:16;;;;;;;57.33;30.08;;;;;;;1.94;81.65;100416.99;1714478;83;20893;-79
2022/02/03 16:24:02;;;;;;;54.13;26.97;;;;;;;1.90;81.73;100416.67;1712162;83;21474;-78
2022/02/03 16:26:56;;;;;;;51.45;24.75;;;;;;;1.89;81.80;100418.83;1711304;83;20964;-78
2022/02/03 16:40:55;;;;;;;47.05;26.73;;;;;;;1.93;81.65;100423.04;1714198;83;20877;-76
2022/02/03 16:52:52;;;;;;;42.40;24.02;;;;;;;1.97;81.79;100417.73;1716039;81;20952;-84
2022/02/03 16:55:22;;;;;;;43.05;24.60;;;;;;;2.02;81.69;100417.19;1714697;83;21008;-85
2022/02/03 16:57:49;;;;;;;48.75;26.07;;;;;;;2.07;81.72;100417.05;1708317;83;21316;-84
2022/02/03 17:00:17;;;;;;;43.63;21.60;;;;;;;2.13;81.85;100408.25;1708592;84;20984;-78
2022/02/03 17:02:44;;;;;;;38.00;23.83;;;;;;;2.19;81.60;100406.79;1708393;83;21351;-81
2022/02/03 17:05:12;;;;;;;44.13;26.85;;;;;;;2.18;81.23;100418.89;1708411;83;20952;-76
2022/02/03 17:07:39;;;;;;;43.25;25.82;;;;;;;2.17;81.26;100422.80;1708563;84;21458;-74
2022/02/03 17:10:06;;;;;;;37.48;23.07;;;;;;;2.16;81.18;100425.00;1708345;83;21121;-77
2022/02/03 17:12:33;;;;;;;41.25;23.15;;;;;;;2.17;81.04;100422.80;1708689;83;21426;-77
2022/02/03 17:15:00;;;;;;;32.20;19.48;;;;;;;2.19;80.92;100419.73;1708388;83;20992;-76
2022/02/03 17:17:27;;;;;;;35.30;20.68;;;;;;;2.18;80.74;100415.42;1708524;83;20948;-78
2022/02/03 17:19:54;;;;;;;35.68;20.92;;;;;;;2.18;80.92;100418.89;1708642;83;20905;-77
2022/02/03 17:22:28;;;;;;;36.17;20.92;;;;;;;2.23;81.14;100414.88;1708437;83;21145;-76
2022/02/03 17:25:06;;;;;;;36.38;22.15;;;;;;;2.31;81.20;100418.52;1707397;83;20897;-76
2022/02/03 17:27:39;;;;;;;35.05;22.27;;;;;;;2.36;81.01;100420.09;1707392;83;21480;-80
2022/02/03 17:30:06;;;;;;;34.50;21.85;;;;;;;2.37;80.62;100416.59;1706285;83;21011;-79
2022/02/03 18:10:39;;;;;;;36.55;20.25;;;;;;;2.15;80.37;100400.00;1708256;83;20901;-76
2022/02/03 18:34:52;;;;;;;33.78;21.05;;;;;;;2.36;79.87;100403.27;1708812;83;20976;-73
2022/02/03 18:37:36;;;;;;;33.20;22.37;;;;;;;2.38;80.00;100401.48;1704460;84;20945;-74
2022/02/03 18:50:39;;;;;;;43.17;24.32;;;;;;;2.37;79.37;100395.05;1682107;83;20905;-76
2022/02/03 18:53:16;;;;;;;38.23;21.02;;;;;;;2.34;79.38;100396.45;1707937;84;20896;-77
2022/02/03 18:58:32;;;;;;;45.73;25.50;;;;;;;2.25;79.56;100394.53;1708427;83;20957;-74
2022/02/03 19:01:06;;;;;;;53.35;30.52;;;;;;;2.25;79.72;100393.69;1705473;83;20893;-76
2022/02/03 19:12:36;;;;;;;56.70;34.50;;;;;;;2.24;79.89;100395.85;1709280;83;21312;-73
2022/02/03 19:24:49;;;;;;;33.65;22.22;;;;;;;2.26;79.77;100392.78;1708392;83;20948;-79
2022/02/03 19:27:09;;;;;;;32.13;19.90;;;;;;;2.30;79.83;100397.43;1701416;83;20933;-76
2022/02/03 20:07:44;;;;;;;46.90;26.68;;;;;;;1.64;80.38;100410.45;1680715;84;21010;-81
2022/02/03 20:10:18;;;;;;;53.48;28.85;;;;;;;1.64;80.56;100410.45;1706197;84;20964;-80
2022/02/03 20:12:40;;;;;;;53.33;29.95;;;;;;;1.59;80.68;100406.70;1707290;83;20865;-79
2022/02/03 20:15:09;;;;;;;50.78;28.35;;;;;;;1.54;80.78;100411.60;1708997;83;21124;-79
2022/02/03 20:17:36;;;;;;;60.03;28.85;;;;;;;1.49;80.98;100402.68;1708573;84;21253;-77
2022/02/03 20:20:05;;;;;;;65.40;39.42;;;;;;;1.47;81.07;100410.04;1708241;83;20877;-82
2022/02/03 20:22:37;;;;;;;64.87;36.33;;;;;;;1.43;81.12;100411.42;1708484;83;20953;-79
2022/02/03 20:25:02;;;;;;;54.53;31.75;;;;;;;1.44;81.37;100409.68;1709532;83;20937;-78
2022/02/03 20:27:30;;;;;;;63.68;34.08;;;;;;;1.47;81.48;100411.33;1708817;83;21117;-82
2022/02/03 20:29:59;;;;;;;67.10;35.33;;;;;;;1.52;81.65;100419.38;1681135;84;21066;-80
2022/02/03 20:32:29;;;;;;;52.15;27.30;;;;;;;1.55;81.53;100419.74;1708616;83;20941;-80
2022/02/03 20:34:59;;;;;;;51.73;29.98;;;;;;;1.51;81.54;100423.29;1708757;83;21020;-80
2022/02/03 20:37:29;;;;;;;63.92;34.05;;;;;;;1.49;81.79;100423.77;1706993;83;20965;-83
2022/02/03 20:39:56;;;;;;;77.35;40.12;;;;;;;1.45;81.97;100426.89;1708714;83;21109;-80
2022/02/03 20:42:25;;;;;;;68.07;35.90;;;;;;;1.43;81.99;100422.20;1708560;84;20897;-78
2022/02/03 20:44:51;;;;;;;80.97;44.35;;;;;;;1.43;82.04;100423.05;1708542;83;21425;-81
2022/02/03 20:47:20;;;;;;;73.85;39.35;;;;;;;1.39;82.05;100424.01;1708822;83;20988;-76
2022/02/03 20:49:47;;;;;;;73.52;39.70;;;;;;;1.38;82.21;100432.66;1707763;84;20988;-77
2022/02/03 20:52:18;;;;;;;69.10;38.92;;;;;;;1.39;82.53;100433.05;1708410;83;21145;-78
2022/02/03 20:54:50;;;;;;;76.97;41.90;;;;;;;1.48;83.00;100433.27;1708258;83;20874;-79
2022/02/03 20:57:15;;;;;;;65.62;34.27;;;;;;;1.53;82.91;100435.28;1706714;83;20901;-79
2022/02/03 21:02:37;;;;;;;73.80;35.23;;;;;;;1.52;82.76;100424.55;1708499;84;20937;-77
2022/02/03 21:05:05;;;;;;;79.53;40.00;;;;;;;1.46;82.73;100428.58;1701964;83;21430;-74
2022/02/03 21:07:26;;;;;;;76.55;36.38;;;;;;;1.41;82.84;100427.41;1706937;83;20941;-74
2022/02/03 21:09:55;;;;;;;73.30;36.58;;;;;;;1.41;83.04;100428.70;1708532;83;20889;-74
2022/02/03 21:12:22;;;;;;;78.02;39.78;;;;;;;1.42;83.16;100425.66;1708416;84;20941;-74
2022/02/03 21:14:53;;;;;;;82.65;39.92;;;;;;;1.44;83.21;100432.48;1708419;84;20905;-73